createdAt,value
2022-07-30T00:00:11.266Z,12.18
2022-07-30T00:03:16.278Z,9.18
2022-07-30T00:06:21.745Z,13.93
2022-07-30T00:09:27.027Z,10.95
2022-07-30T00:12:33.636Z,13.70
2022-07-30T00:15:39.091Z,10.88
2022-07-30T00:18:44.305Z,11.38
2022-07-30T00:21:49.860Z,15.88
2022-07-30T00:24:55.997Z,12.75
2022-07-30T00:28:02.918Z,10.18
2022-07-30T00:31:08.119Z,15.13
2022-07-30T00:34:13.616Z,10.73
2022-07-30T00:37:19.248Z,11.98
2022-07-30T00:40:24.673Z,11.93
2022-07-30T00:43:31.587Z,10.23
2022-07-30T00:46:36.975Z,14.63
2022-07-30T00:49:44.363Z,13.18
2022-07-30T00:52:49.765Z,15.48
2022-07-30T00:55:54.773Z,11.50
2022-07-30T00:59:01.627Z,15.65
2022-07-30T01:02:07.316Z,14.38
2022-07-30T01:05:13.210Z,8.40
2022-07-30T01:08:18.787Z,16.38
2022-07-30T01:11:29.612Z,17.38
2022-07-30T01:14:37.295Z,13.00
2022-07-30T01:17:42.497Z,11.55
2022-07-30T01:20:58.323Z,16.88
2022-07-30T01:24:17.377Z,11.80
2022-07-30T01:27:26.204Z,15.43
2022-07-30T01:30:35.511Z,17.17
2022-07-30T01:33:45.975Z,14.02
2022-07-30T01:36:52.012Z,15.55
2022-07-30T01:39:58.260Z,13.27
2022-07-30T01:43:08.089Z,15.13
2022-07-30T01:46:15.927Z,21.63
2022-07-30T01:49:24.048Z,20.33
2022-07-30T01:52:31.615Z,17.83
2022-07-30T01:55:41.122Z,17.67
2022-07-30T01:58:50.576Z,18.60
2022-07-30T02:02:01.552Z,19.65
2022-07-30T02:05:07.451Z,23.77
2022-07-30T02:08:17.860Z,20.88
2022-07-30T02:11:44.530Z,15.95
2022-07-30T02:14:57.383Z,17.80
2022-07-30T02:18:07.401Z,21.52
2022-07-30T02:21:13.901Z,13.63
2022-07-30T02:24:24.989Z,20.88
2022-07-30T02:27:34.950Z,16.65
2022-07-30T02:30:49.391Z,18.60
2022-07-30T02:33:59.344Z,23.60
2022-07-30T02:37:07.033Z,24.08
2022-07-30T02:40:18.889Z,25.48
2022-07-30T02:43:26.085Z,25.80
2022-07-30T02:46:33.400Z,26.38
2022-07-30T02:49:59.570Z,25.98
2022-07-30T02:53:09.920Z,26.65
2022-07-30T02:56:17.394Z,27.50
2022-07-30T02:59:24.893Z,22.73
2022-07-30T03:02:32.838Z,27.23
2022-07-30T03:05:39.571Z,26.15
2022-07-30T03:08:46.114Z,26.35
2022-07-30T03:11:53.473Z,27.77
2022-07-30T03:14:59.402Z,25.30
2022-07-30T03:18:07.842Z,28.00
2022-07-30T03:21:15.936Z,22.10
2022-07-30T03:24:25.377Z,29.23
2022-07-30T03:27:32.338Z,22.85
2022-07-30T03:30:38.386Z,26.23
2022-07-30T03:33:46.156Z,25.60
2022-07-30T03:36:55.487Z,21.83
2022-07-30T03:40:01.834Z,23.83
2022-07-30T03:43:18.552Z,22.17
2022-07-30T03:46:37.439Z,26.05
2022-07-30T03:49:44.522Z,24.27
2022-07-30T03:52:50.592Z,30.77
2022-07-30T03:55:56.695Z,25.50
2022-07-30T03:59:21.091Z,30.88
2022-07-30T04:02:26.913Z,30.80
2022-07-30T04:05:56.729Z,26.45
2022-07-30T04:09:02.449Z,31.83
2022-07-30T04:12:07.966Z,32.22
2022-07-30T04:16:05.704Z,24.95
2022-07-30T04:18:45.271Z,28.50
2022-07-30T04:21:55.029Z,27.10
2022-07-30T04:25:02.550Z,27.35
2022-07-30T04:28:08.281Z,29.83
2022-07-30T04:31:13.671Z,24.13
2022-07-30T04:34:19.603Z,32.55
2022-07-30T04:37:27.992Z,37.75
2022-07-30T04:40:33.549Z,23.40
2022-07-30T04:43:39.189Z,30.48
2022-07-30T04:46:44.816Z,23.27
2022-07-30T04:49:51.819Z,27.48
2022-07-30T04:52:58.547Z,27.42
2022-07-30T04:56:12.113Z,30.92
2022-07-30T04:59:19.219Z,21.10
2022-07-30T05:02:28.374Z,27.92
2022-07-30T05:05:34.799Z,18.30
2022-07-30T05:08:42.713Z,20.70
2022-07-30T05:11:53.253Z,18.60
2022-07-30T05:14:58.528Z,20.45
2022-07-30T05:18:03.805Z,22.55
2022-07-30T05:21:16.894Z,18.13
2022-07-30T05:24:26.886Z,21.65
2022-07-30T05:27:35.068Z,18.80
2022-07-30T05:30:46.039Z,17.63
2022-07-30T05:33:55.394Z,18.20
2022-07-30T05:37:04.817Z,12.82
2022-07-30T05:40:13.355Z,14.18
2022-07-30T05:43:55.833Z,11.45
2022-07-30T05:47:02.289Z,15.70
2022-07-30T05:50:08.359Z,14.45
2022-07-30T05:53:14.470Z,10.77
2022-07-30T05:56:40.931Z,21.10
2022-07-30T05:59:52.302Z,13.63
2022-07-30T06:03:21.984Z,9.30
2022-07-30T06:07:05.888Z,9.90
2022-07-30T06:10:12.420Z,10.07
2022-07-30T06:13:19.006Z,8.27
2022-07-30T06:16:24.617Z,11.68
2022-07-30T06:19:30.042Z,7.32
2022-07-30T06:22:35.345Z,9.23
2022-07-30T06:25:46.127Z,8.23
2022-07-30T06:28:52.525Z,12.20
2022-07-30T06:32:05.036Z,8.50
2022-07-30T06:35:10.611Z,6.00
2022-07-30T06:38:16.050Z,7.00
2022-07-30T06:41:32.405Z,8.75
2022-07-30T06:44:39.674Z,6.70
2022-07-30T06:47:59.658Z,7.78
2022-07-30T06:51:06.676Z,5.70
2022-07-30T06:54:13.113Z,10.63
2022-07-30T06:57:50.912Z,9.30
2022-07-30T07:01:26.615Z,6.65
2022-07-30T07:04:33.258Z,6.40
2022-07-30T07:07:44.431Z,9.88
2022-07-30T07:10:59.220Z,7.65
2022-07-30T07:14:08.854Z,8.93
2022-07-30T07:17:16.412Z,4.45
2022-07-30T07:20:46.591Z,6.47
2022-07-30T07:23:52.037Z,4.55
2022-07-30T07:27:16.669Z,4.50
2022-07-30T07:30:25.202Z,4.13
2022-07-30T07:33:32.206Z,4.53
2022-07-30T07:36:37.908Z,8.90
2022-07-30T07:39:43.323Z,6.93
2022-07-30T07:42:48.921Z,8.77
2022-07-30T07:45:57.108Z,6.32
2022-07-30T07:49:06.377Z,5.18
2022-07-30T07:52:23.618Z,6.10
2022-07-30T07:55:31.695Z,3.38
2022-07-30T07:58:38.802Z,4.95
2022-07-30T08:01:47.567Z,8.75
2022-07-30T08:05:06.877Z,4.75
2022-07-30T08:08:37.497Z,4.35
2022-07-30T08:12:18.171Z,6.03
2022-07-30T08:15:38.523Z,4.28
2022-07-30T08:19:21.970Z,4.47
2022-07-30T08:22:46.950Z,8.48
2022-07-30T08:25:53.656Z,4.75
2022-07-30T08:28:59.076Z,5.40
2022-07-30T08:32:04.525Z,4.13
2022-07-30T08:35:13.478Z,3.75
2022-07-30T08:38:20.581Z,7.07
2022-07-30T08:41:27.107Z,4.28
2022-07-30T08:44:34.209Z,3.20
2022-07-30T08:47:42.139Z,4.70
2022-07-30T08:50:51.343Z,3.10
2022-07-30T08:54:20.220Z,3.30
2022-07-30T08:57:26.239Z,3.75
2022-07-30T09:00:31.985Z,2.13
2022-07-30T09:03:44.138Z,3.03
2022-07-30T09:06:50.298Z,5.35
2022-07-30T09:09:57.370Z,3.03
2022-07-30T09:13:04.094Z,6.28
2022-07-30T09:16:20.519Z,5.47
2022-07-30T09:19:26.788Z,4.82
2022-07-30T09:22:43.693Z,3.35
2022-07-30T09:26:29.506Z,2.15
2022-07-30T09:29:59.337Z,2.55
2022-07-30T09:33:33.751Z,5.07
2022-07-30T09:37:02.095Z,5.47
2022-07-30T09:40:33.627Z,1.77
2022-07-30T09:44:03.908Z,6.25
2022-07-30T09:47:31.567Z,3.03
2022-07-30T09:50:37.371Z,1.55
2022-07-30T09:53:57.622Z,4.03
2022-07-30T10:00:37.677Z,4.38
2022-07-30T10:04:24.979Z,3.42
2022-07-30T10:07:43.627Z,5.15
2022-07-30T10:10:50.710Z,2.10
2022-07-30T10:13:59.116Z,4.57
2022-07-30T10:17:06.845Z,3.47
2022-07-30T10:20:15.064Z,3.38
2022-07-30T10:23:44.221Z,4.05
2022-07-30T10:27:10.175Z,1.92
2022-07-30T10:30:27.957Z,1.73
2022-07-30T10:33:40.009Z,3.42
2022-07-30T10:36:49.601Z,5.18
2022-07-30T10:39:58.412Z,1.75
2022-07-30T10:43:24.310Z,3.38
2022-07-30T10:46:50.825Z,4.68
2022-07-30T10:50:12.035Z,2.95
2022-07-30T10:53:39.611Z,3.72
2022-07-30T10:57:04.120Z,4.60
2022-07-30T11:00:15.172Z,2.60
2022-07-30T11:03:23.532Z,4.00
2022-07-30T11:06:37.738Z,1.98
2022-07-30T11:09:43.694Z,1.60
2022-07-30T11:12:56.505Z,2.20
2022-07-30T11:16:02.275Z,2.20
2022-07-30T11:19:56.584Z,2.63
2022-07-30T11:22:44.804Z,2.87
2022-07-30T11:25:54.492Z,6.60
2022-07-30T11:29:00.163Z,3.22
2022-07-30T11:32:25.359Z,2.95
2022-07-30T11:35:35.190Z,1.80
2022-07-30T11:39:03.671Z,6.18
2022-07-30T11:42:25.617Z,3.72
2022-07-30T11:45:30.865Z,5.22
2022-07-30T11:48:38.029Z,3.10
2022-07-30T11:51:47.235Z,3.75
2022-07-30T11:54:55.457Z,2.63
2022-07-30T11:58:03.494Z,3.03
2022-07-30T12:01:14.369Z,5.65
2022-07-30T12:04:20.656Z,3.30
2022-07-30T12:07:25.917Z,3.17
2022-07-30T12:10:32.374Z,4.45
2022-07-30T12:13:44.452Z,4.20
2022-07-30T12:16:54.169Z,5.95
2022-07-30T12:19:59.838Z,3.08
2022-07-30T12:23:11.423Z,4.93
2022-07-30T12:26:26.942Z,3.20
2022-07-30T12:29:33.118Z,2.63
2022-07-30T12:32:38.644Z,4.55
2022-07-30T12:35:45.547Z,6.20
2022-07-30T12:38:52.726Z,7.40
2022-07-30T12:41:59.531Z,3.38
2022-07-30T12:45:08.111Z,3.03
2022-07-30T12:48:14.108Z,11.57
2022-07-30T12:51:21.662Z,6.32
2022-07-30T12:54:27.042Z,3.70
2022-07-30T12:58:02.904Z,4.75
2022-07-30T13:01:13.636Z,1.92
2022-07-30T13:04:19.535Z,3.05
2022-07-30T13:07:24.720Z,5.10
2022-07-30T13:10:31.586Z,3.08
2022-07-30T13:13:38.605Z,6.18
2022-07-30T13:16:44.319Z,3.58
2022-07-30T13:19:49.622Z,2.95
2022-07-30T13:23:00.156Z,5.07
2022-07-30T13:26:09.153Z,3.35
2022-07-30T13:29:15.928Z,4.00
2022-07-30T13:32:21.106Z,10.77
2022-07-30T13:35:26.469Z,2.13
2022-07-30T13:38:31.647Z,2.67
2022-07-30T13:41:36.774Z,3.58
2022-07-30T13:44:43.443Z,6.22
2022-07-30T13:47:54.828Z,2.85
2022-07-30T13:51:01.449Z,3.90
2022-07-30T13:54:07.293Z,2.78
2022-07-30T13:57:12.402Z,6.60
2022-07-30T14:00:19.448Z,3.70
2022-07-30T14:03:24.714Z,4.32
2022-07-30T14:06:29.613Z,2.70
2022-07-30T14:09:34.444Z,3.72
2022-07-30T14:12:50.829Z,2.38
2022-07-30T14:15:57.105Z,5.35
2022-07-30T14:19:02.034Z,5.60
2022-07-30T14:22:07.677Z,3.72
2022-07-30T14:25:13.307Z,4.32
2022-07-30T14:28:18.472Z,4.35
2022-07-30T14:31:25.117Z,4.88
2022-07-30T14:34:30.225Z,5.53
2022-07-30T14:37:35.299Z,5.47
2022-07-30T14:40:40.683Z,4.20
2022-07-30T14:43:45.586Z,4.57
2022-07-30T14:46:52.983Z,5.07
2022-07-30T14:49:58.232Z,3.72
2022-07-30T14:53:03.049Z,6.03
2022-07-30T14:56:08.503Z,6.00
2022-07-30T14:59:13.503Z,2.22
2022-07-30T15:02:19.992Z,3.17
2022-07-30T15:05:25.406Z,4.68
2022-07-30T15:08:33.115Z,3.70
2022-07-30T15:12:03.548Z,7.43
2022-07-30T15:15:03.799Z,4.57
2022-07-30T15:18:11.762Z,4.97
2022-07-30T15:21:17.151Z,5.22
2022-07-30T15:24:22.399Z,4.55
2022-07-30T15:27:33.919Z,4.43
2022-07-30T15:30:39.238Z,6.10
2022-07-30T15:33:45.668Z,4.53
2022-07-30T15:36:50.821Z,7.03
2022-07-30T15:39:56.323Z,4.25
2022-07-30T15:43:01.295Z,4.22
2022-07-30T15:46:14.084Z,4.32
2022-07-30T15:49:20.994Z,7.40
2022-07-30T15:52:26.576Z,4.68
2022-07-30T15:55:31.545Z,6.78
2022-07-30T15:58:52.540Z,4.13
2022-07-30T16:01:57.821Z,5.47
2022-07-30T16:05:05.428Z,5.47
2022-07-30T16:08:13.739Z,8.40
2022-07-30T16:11:22.267Z,4.75
2022-07-30T16:14:27.730Z,7.05
2022-07-30T16:17:33.096Z,4.07
2022-07-30T16:20:43.361Z,7.57
2022-07-30T16:23:48.315Z,12.82
2022-07-30T16:26:53.437Z,3.38
2022-07-30T16:29:59.196Z,4.97
2022-07-30T16:33:04.659Z,6.63
2022-07-30T16:36:11.416Z,4.32
2022-07-30T16:39:17.256Z,7.60
2022-07-30T16:42:22.856Z,3.63
2022-07-30T16:45:28.815Z,4.18
2022-07-30T16:48:34.657Z,4.38
2022-07-30T16:51:42.756Z,6.82
2022-07-30T16:54:47.976Z,6.32
2022-07-30T16:57:53.695Z,6.05
2022-07-30T17:00:59.684Z,3.63
2022-07-30T17:04:05.277Z,8.70
2022-07-30T17:07:11.650Z,7.88
2022-07-30T17:10:16.638Z,4.88
2022-07-30T17:13:31.986Z,6.53
2022-07-30T17:16:40.237Z,3.47
2022-07-30T17:19:46.107Z,4.63
2022-07-30T17:22:55.180Z,5.35
2022-07-30T17:26:00.714Z,3.10
2022-07-30T17:29:13.932Z,7.00
2022-07-30T17:32:20.189Z,9.52
2022-07-30T17:35:26.293Z,13.38
2022-07-30T17:38:33.230Z,10.00
2022-07-30T17:41:58.204Z,7.35
2022-07-30T17:45:04.987Z,6.43
2022-07-30T17:48:10.608Z,5.97
2022-07-30T17:51:16.416Z,6.07
2022-07-30T17:54:23.023Z,6.43
2022-07-30T17:57:28.420Z,7.88
2022-07-30T18:00:35.322Z,10.40
2022-07-30T18:03:45.096Z,4.25
2022-07-30T18:06:50.753Z,2.28
2022-07-30T18:09:57.671Z,6.32
2022-07-30T18:13:25.636Z,6.43
2022-07-30T18:16:29.182Z,6.80
2022-07-30T18:19:34.454Z,7.38
2022-07-30T18:22:40.377Z,3.15
2022-07-30T18:25:51.969Z,7.78
2022-07-30T18:28:59.216Z,6.43
2022-07-30T18:32:04.740Z,7.28
2022-07-30T18:35:14.822Z,5.90
2022-07-30T18:38:20.633Z,4.60
2022-07-30T18:41:27.341Z,6.13
2022-07-30T18:44:32.950Z,11.20
2022-07-30T18:47:38.341Z,5.38
2022-07-30T18:50:43.711Z,4.10
2022-07-30T18:53:49.192Z,6.03
2022-07-30T18:56:55.501Z,8.80
2022-07-30T19:00:00.888Z,6.93
2022-07-30T19:03:06.122Z,4.43
2022-07-30T19:06:11.407Z,6.13
2022-07-30T19:09:18.016Z,6.78
2022-07-30T19:12:25.199Z,4.68
2022-07-30T19:15:30.976Z,5.43
2022-07-30T19:18:36.671Z,3.47
2022-07-30T19:21:42.575Z,5.90
2022-07-30T19:24:51.319Z,4.80
2022-07-30T19:27:58.085Z,5.20
2022-07-30T19:31:02.945Z,8.43
2022-07-30T19:34:11.763Z,4.57
2022-07-30T19:37:16.965Z,4.03
2022-07-30T19:40:22.187Z,6.05
2022-07-30T19:43:30.685Z,14.95
2022-07-30T19:46:39.058Z,10.48
2022-07-30T19:49:46.549Z,5.50
2022-07-30T19:52:54.739Z,7.93
2022-07-30T19:56:01.654Z,4.55
2022-07-30T19:59:14.685Z,6.07
2022-07-30T20:02:20.653Z,7.93
2022-07-30T20:05:27.718Z,6.35
2022-07-30T20:08:35.545Z,14.60
2022-07-30T20:11:40.781Z,13.77
2022-07-30T20:14:53.477Z,8.50
2022-07-30T20:17:58.483Z,9.98
2022-07-30T20:21:03.882Z,8.60
2022-07-30T20:24:09.934Z,9.35
2022-07-30T20:27:36.613Z,5.80
2022-07-30T20:30:42.933Z,6.45
2022-07-30T20:33:50.158Z,7.40
2022-07-30T21:15:23.593Z,12.68
2022-07-30T21:18:29.790Z,8.98
2022-07-30T21:21:41.874Z,6.40
2022-07-30T21:24:53.431Z,8.52
2022-07-30T21:27:58.994Z,8.65
2022-07-30T21:31:06.919Z,4.35
2022-07-30T21:34:13.350Z,11.80
2022-07-30T21:37:19.381Z,9.63
2022-07-30T21:40:25.012Z,9.65
2022-07-30T21:43:30.968Z,9.10
2022-07-30T21:46:40.533Z,9.07
2022-07-30T21:49:47.256Z,5.68
2022-07-30T21:52:52.320Z,8.52
2022-07-30T21:55:57.468Z,7.18
2022-07-30T21:59:02.859Z,9.13
2022-07-30T22:02:15.863Z,7.50
2022-07-30T22:08:49.388Z,5.47
2022-07-30T22:11:54.723Z,7.45
2022-07-30T22:15:00.925Z,7.85
2022-07-30T22:18:08.020Z,7.72
2022-07-30T22:21:14.572Z,5.72
2022-07-30T22:24:29.916Z,5.82
2022-07-30T22:27:39.956Z,7.75
2022-07-30T22:31:01.780Z,9.88
2022-07-30T22:34:12.104Z,8.93
2022-07-30T22:37:21.921Z,9.07
2022-07-30T22:40:26.820Z,9.05
2022-07-30T22:43:33.299Z,11.55
2022-07-30T22:46:46.225Z,6.35
2022-07-30T22:50:03.078Z,7.10
2022-07-30T22:53:23.357Z,8.38
2022-07-30T22:56:33.981Z,8.73
2022-07-30T22:59:58.020Z,13.90
2022-07-30T23:03:04.429Z,9.77
2022-07-30T23:06:16.275Z,13.25
2022-07-30T23:09:22.262Z,12.98
2022-07-30T23:12:32.822Z,5.95
2022-07-30T23:12:35.294Z,7.25
2022-07-30T23:15:40.977Z,10.82
2022-07-30T23:18:45.881Z,9.25
2022-07-30T23:21:52.868Z,12.85
2022-07-30T23:24:58.460Z,11.80
2022-07-30T23:28:03.976Z,9.43
2022-07-30T23:31:09.550Z,11.65
2022-07-30T23:34:14.768Z,9.98
2022-07-30T23:37:21.724Z,11.68
2022-07-30T23:40:27.190Z,10.00
2022-07-30T23:43:32.797Z,11.20
2022-07-30T23:46:38.303Z,12.10
2022-07-30T23:49:43.751Z,12.07
2022-07-30T23:52:50.690Z,14.52
2022-07-30T23:55:56.151Z,11.75
2022-07-30T23:59:01.917Z,11.55
